KCNO/CNO METAR and TAF weather

Enter ICAO airport designator
Station Type Date Time Source
KCNO METAR 2019/12/13 00:53 UTC NOAA

KCNO 130053Z 23003KT 6SM HZ CLR 18/11 A3015 RMK AO2 SLP209 T01780111


Station Type Date Time Source
KCNO Decoded METAR 2019/12/13 00:53 UTC NOAA

CHINO AIRPORT, CA, United States (KCNO) 33-58N 117-38W 207M
Dec 12, 2019 - 07:53 PM EST / 2019.12.13 0053 UTC
Wind: from the SW (230 degrees) at 3 MPH (3 KT):0
Visibility: 6 mile(s):0
Sky conditions: clear
Weather: haze
Temperature: 64.0 F (17.8 C)
Dew Point: 52.0 F (11.1 C)
Relative Humidity: 64%
Pressure (altimeter): 30.15 in. Hg (1020 hPa)
ob: KCNO 130053Z 23003KT 6SM HZ CLR 18/11 A3015 RMK AO2 SLP209 T01780111
cycle: 1

Station Type Date Time Source
KCNO TAF UTC NOAA

Error!

Example: see airport list